Time;durP1;ratioP1;P1;durP2;ratioP2;P2;SDS_P1;SDS_P2;PMS_P1;PMS_P2;Temp;Humidity;BMP_temperature;BMP_pressure;BME280_temperature;BME280_humidity;BME280_pressure;Samples;Min_cycle;Max_cycle;Signal;HPM_P1;HPM_P2
2022/11/07 00:01:37;;;;;;;2.13;1.40;;;16.00;69.70;;;;;;5029741;28;20049;-72
2022/11/07 00:04:03;;;;;;;2.72;1.30;;;16.00;69.80;;;;;;5066343;28;20061;-71
2022/11/07 00:06:31;;;;;;;3.50;1.42;;;16.00;69.80;;;;;;5066412;28;20414;-72
2022/11/07 00:08:58;;;;;;;1.45;1.17;;;16.00;69.80;;;;;;5032823;28;20053;-71
2022/11/07 00:11:25;;;;;;;2.63;1.50;;;15.90;69.70;;;;;;5065960;28;20054;-72
2022/11/07 00:13:51;;;;;;;2.78;1.40;;;15.90;69.70;;;;;;5065346;28;20056;-71
2022/11/07 00:16:20;;;;;;;1.88;1.27;;;16.00;69.80;;;;;;5032387;28;20056;-71
2022/11/07 00:18:46;;;;;;;3.47;1.40;;;16.00;69.80;;;;;;5032410;28;20049;-72
2022/11/07 00:21:13;;;;;;;2.45;1.55;;;15.90;69.80;;;;;;5032412;28;20057;-72
2022/11/07 00:23:40;;;;;;;2.22;1.50;;;15.90;69.80;;;;;;5032611;28;20137;-72
2022/11/07 00:26:07;;;;;;;2.20;1.30;;;15.90;69.80;;;;;;5032668;28;20064;-73
2022/11/07 00:28:34;;;;;;;2.47;1.42;;;15.90;69.80;;;;;;5032226;28;20494;-72
2022/11/07 00:31:01;;;;;;;1.80;1.30;;;15.90;69.80;;;;;;5032226;28;20080;-72
2022/11/07 00:33:29;;;;;;;2.70;1.30;;;15.90;69.80;;;;;;5032389;28;20164;-72
2022/11/07 00:35:55;;;;;;;3.25;1.70;;;15.90;69.80;;;;;;5031933;28;20060;-71
2022/11/07 00:38:22;;;;;;;2.72;1.40;;;15.90;69.80;;;;;;5032448;28;20053;-71
2022/11/07 00:40:54;;;;;;;2.03;1.30;;;15.90;69.90;;;;;;5032386;28;20507;-72
2022/11/07 00:43:21;;;;;;;2.10;1.50;;;15.90;69.90;;;;;;5032063;28;20053;-71
2022/11/07 00:45:47;;;;;;;2.95;1.70;;;15.90;69.90;;;;;;5032145;28;20057;-72
2022/11/07 00:48:14;;;;;;;1.70;1.35;;;15.90;69.90;;;;;;5031799;28;20059;-72
2022/11/07 00:50:42;;;;;;;2.17;1.40;;;15.90;69.90;;;;;;5032820;28;20408;-71
2022/11/07 00:53:09;;;;;;;1.85;1.30;;;15.90;69.90;;;;;;5032096;28;20140;-72
2022/11/07 00:55:35;;;;;;;1.98;1.35;;;15.80;69.90;;;;;;5031678;28;20057;-72
2022/11/07 00:58:02;;;;;;;1.90;1.33;;;15.80;72.10;;;;;;5032732;28;20050;-72
2022/11/07 01:00:29;;;;;;;1.52;1.30;;;15.80;69.90;;;;;;5031810;28;20053;-71
2022/11/07 01:05:36;;;;;;;2.33;1.50;;;15.80;69.90;;;;;;5030739;28;20061;-71
2022/11/07 01:08:05;;;;;;;1.67;1.30;;;15.80;69.90;;;;;;5031962;28;20057;-71
2022/11/07 01:10:31;;;;;;;2.88;1.30;;;15.80;69.90;;;;;;5031336;28;20053;-72
2022/11/07 01:12:58;;;;;;;3.00;1.65;;;15.80;69.90;;;;;;5032603;28;20152;-72
2022/11/07 01:15:25;;;;;;;2.70;1.95;;;15.80;69.90;;;;;;5031659;28;20483;-71
2022/11/07 01:17:52;;;;;;;2.20;1.50;;;15.80;69.90;;;;;;5031361;28;20053;-71
2022/11/07 01:20:18;;;;;;;2.47;1.30;;;15.80;70.00;;;;;;5031108;28;20086;-72
2022/11/07 01:22:45;;;;;;;2.47;1.23;;;15.80;70.00;;;;;;5031407;28;20045;-71
2022/11/07 01:25:13;;;;;;;1.80;1.45;;;15.80;70.00;;;;;;5032358;28;20059;-72
2022/11/07 01:27:40;;;;;;;2.00;1.35;;;15.80;70.00;;;;;;5031712;28;20405;-72
2022/11/07 01:30:08;;;;;;;2.33;1.25;;;15.80;70.00;;;;;;5031196;28;20049;-72
2022/11/07 01:32:35;;;;;;;1.77;1.20;;;15.70;70.00;;;;;;5031336;28;20107;-71
2022/11/07 01:35:01;;;;;;;1.70;1.45;;;15.80;70.00;;;;;;5031313;28;20413;-72
2022/11/07 01:37:28;;;;;;;2.35;1.35;;;15.70;70.00;;;;;;5030979;28;20057;-71
2022/11/07 01:39:55;;;;;;;3.10;1.30;;;15.70;70.00;;;;;;5030890;28;20053;-73
2022/11/07 01:42:23;;;;;;;1.95;1.33;;;15.70;70.00;;;;;;5032294;28;20072;-72
2022/11/07 01:44:52;;;;;;;2.03;1.40;;;15.70;70.00;;;;;;5031216;28;20402;-71
2022/11/07 01:47:19;;;;;;;2.00;1.40;;;15.70;70.00;;;;;;5030962;28;20168;-72
2022/11/07 01:49:45;;;;;;;1.60;1.30;;;15.70;70.00;;;;;;5031207;28;20045;-72
2022/11/07 01:52:14;;;;;;;2.55;1.40;;;15.70;70.10;;;;;;5030471;28;20049;-71
2022/11/07 01:54:44;;;;;;;2.03;1.30;;;15.70;70.10;;;;;;5030924;28;20067;-72
2022/11/07 01:57:12;;;;;;;2.17;1.40;;;15.70;70.10;;;;;;5030609;28;20059;-71
2022/11/07 01:59:40;;;;;;;2.03;1.30;;;15.70;70.10;;;;;;5030926;28;20053;-72
2022/11/07 02:02:07;;;;;;;1.77;1.27;;;15.70;70.10;;;;;;5031138;28;20053;-72
2022/11/07 02:04:33;;;;;;;2.17;1.35;;;15.70;70.10;;;;;;5031578;28;20045;-72
2022/11/07 02:07:01;;;;;;;1.33;1.15;;;15.70;70.10;;;;;;5030561;28;20049;-72
2022/11/07 02:09:28;;;;;;;1.58;1.25;;;15.70;70.10;;;;;;5030968;28;20055;-72
2022/11/07 02:11:59;;;;;;;2.25;1.50;;;15.70;70.10;;;;;;5030775;28;20136;-72
2022/11/07 02:14:26;;;;;;;1.75;1.35;;;15.70;70.10;;;;;;5031048;28;20487;-72
2022/11/07 02:16:54;;;;;;;1.40;1.20;;;15.60;70.60;;;;;;5030828;28;20053;-72
2022/11/07 02:19:25;;;;;;;2.70;1.20;;;15.60;70.10;;;;;;5030313;28;20053;-72
2022/11/07 02:21:55;;;;;;;2.85;1.40;;;15.60;70.10;;;;;;5030627;28;20061;-71
2022/11/07 02:24:25;;;;;;;2.78;1.40;;;15.60;70.10;;;;;;5030708;28;20056;-72
2022/11/07 02:26:52;;;;;;;2.03;1.27;;;15.00;72.40;;;;;;5030665;28;20057;-71
2022/11/07 02:29:18;;;;;;;2.22;1.30;;;15.60;70.20;;;;;;5030743;28;20045;-72
2022/11/07 02:31:45;;;;;;;1.90;1.40;;;15.60;70.20;;;;;;5030312;28;20052;-72
2022/11/07 02:34:12;;;;;;;2.40;1.30;;;15.60;70.20;;;;;;5030796;28;20056;-72
2022/11/07 02:36:38;;;;;;;1.95;1.35;;;15.60;70.20;;;;;;5030456;28;20059;-72
2022/11/07 02:39:05;;;;;;;1.77;1.20;;;15.60;70.20;;;;;;5030376;28;20133;-72
2022/11/07 02:41:33;;;;;;;3.45;1.60;;;15.60;70.20;;;;;;5030644;28;20057;-72
2022/11/07 02:44:01;;;;;;;2.05;1.40;;;15.60;70.20;;;;;;5030569;28;20063;-72
2022/11/07 02:46:28;;;;;;;1.67;1.15;;;15.60;70.20;;;;;;5030164;28;20053;-71
2022/11/07 02:48:56;;;;;;;1.52;1.17;;;15.60;70.20;;;;;;5030376;28;20045;-72
2022/11/07 02:51:23;;;;;;;2.42;1.33;;;15.60;70.20;;;;;;5030300;28;20049;-72
2022/11/07 02:53:49;;;;;;;1.58;1.35;;;15.60;70.20;;;;;;5030448;28;20060;-72
2022/11/07 02:56:16;;;;;;;1.95;1.20;;;15.60;70.20;;;;;;5030528;28;20055;-72
2022/11/07 02:58:44;;;;;;;2.13;1.30;;;15.60;70.20;;;;;;5030203;28;20057;-72
2022/11/07 03:01:11;;;;;;;1.90;1.30;;;15.60;70.20;;;;;;5030093;28;20064;-73
2022/11/07 03:03:39;;;;;;;1.73;1.20;;;15.60;70.30;;;;;;5030424;28;20060;-72
2022/11/07 03:06:06;;;;;;;2.45;1.38;;;15.60;70.30;;;;;;5030253;28;20053;-72
2022/11/07 03:08:33;;;;;;;1.83;1.20;;;15.60;70.30;;;;;;5030492;28;20060;-72
2022/11/07 03:11:00;;;;;;;2.67;1.50;;;15.60;70.30;;;;;;5030171;28;20050;-72
2022/11/07 03:13:26;;;;;;;2.40;1.40;;;15.50;70.20;;;;;;5033148;28;20053;-71
2022/11/07 03:15:55;;;;;;;1.83;1.30;;;15.50;70.20;;;;;;5033702;28;20067;-71
2022/11/07 03:18:21;;;;;;;1.48;1.10;;;15.60;70.20;;;;;;5033794;28;20521;-72
2022/11/07 03:20:48;;;;;;;1.58;1.20;;;15.50;70.20;;;;;;5033486;28;20080;-72
2022/11/07 03:23:15;;;;;;;2.10;1.40;;;15.50;70.20;;;;;;5033663;28;20187;-72
2022/11/07 03:25:42;;;;;;;2.35;1.35;;;15.50;70.20;;;;;;5033784;28;20410;-72
2022/11/07 03:28:08;;;;;;;2.38;1.35;;;15.50;70.20;;;;;;5033309;28;20067;-72
2022/11/07 03:30:35;;;;;;;1.33;1.10;;;15.50;70.20;;;;;;5033240;28;20064;-72
2022/11/07 03:33:03;;;;;;;1.75;1.20;;;15.50;70.20;;;;;;5033645;28;20053;-72
2022/11/07 03:35:30;;;;;;;2.88;1.35;;;15.50;70.20;;;;;;5033742;28;20067;-71
2022/11/07 03:37:56;;;;;;;2.08;1.27;;;15.50;70.20;;;;;;5033301;28;20049;-72
2022/11/07 03:40:23;;;;;;;2.17;1.25;;;15.50;70.20;;;;;;5033070;28;20049;-71
2022/11/07 03:42:50;;;;;;;1.50;1.33;;;15.50;70.20;;;;;;5034369;28;20402;-71
2022/11/07 03:45:16;;;;;;;3.38;1.40;;;15.50;70.20;;;;;;5033239;28;20053;-72
2022/11/07 03:47:44;;;;;;;2.25;1.40;;;15.50;70.20;;;;;;5033416;28;20072;-72
2022/11/07 03:50:13;;;;;;;3.05;1.30;;;15.50;70.20;;;;;;5032903;28;20053;-72
2022/11/07 03:52:40;;;;;;;2.65;1.27;;;15.50;70.20;;;;;;5033398;28;20053;-72
2022/11/07 03:55:07;;;;;;;1.75;1.30;;;15.50;70.20;;;;;;5034336;28;20057;-72
2022/11/07 03:57:34;;;;;;;2.63;1.20;;;15.50;70.20;;;;;;5033265;28;20079;-71
2022/11/07 04:00:01;;;;;;;1.42;1.20;;;15.50;70.20;;;;;;5032514;28;20049;-72
2022/11/07 04:02:28;;;;;;;2.33;1.30;;;15.50;70.20;;;;;;5032957;28;20053;-72
2022/11/07 04:04:54;;;;;;;3.15;1.23;;;15.50;70.20;;;;;;5032788;28;20099;-72
2022/11/07 04:07:22;;;;;;;1.83;1.20;;;15.50;70.20;;;;;;5033136;28;20064;-72
2022/11/07 04:09:49;;;;;;;1.83;1.20;;;15.50;70.20;;;;;;5033037;28;20071;-72
2022/11/07 04:17:44;;;;;;;1.58;1.20;;;15.50;70.30;;;;;;5032897;28;20076;-72
2022/11/07 04:20:11;;;;;;;3.03;1.30;;;15.50;72.50;;;;;;5032403;28;20053;-71
2022/11/07 04:22:41;;;;;;;2.58;1.55;;;15.50;70.20;;;;;;5032472;28;20053;-72
2022/11/07 04:25:09;;;;;;;1.67;1.17;;;15.50;70.20;;;;;;5031817;28;20056;-72
2022/11/07 04:27:43;;;;;;;2.15;1.20;;;15.50;70.20;;;;;;5032648;28;20053;-72
2022/11/07 04:30:23;;;;;;;1.80;1.20;;;15.50;70.30;;;;;;5031889;28;20128;-72
2022/11/07 04:32:51;;;;;;;1.73;1.10;;;15.50;70.30;;;;;;5032345;28;20469;-72
2022/11/07 04:35:18;;;;;;;2.17;1.30;;;15.50;70.30;;;;;;5032162;28;20191;-71
2022/11/07 04:37:46;;;;;;;1.60;1.15;;;15.40;70.20;;;;;;5032400;28;20056;-72
2022/11/07 04:40:13;;;;;;;1.70;1.20;;;15.50;70.30;;;;;;5033087;28;20060;-71
2022/11/07 04:42:39;;;;;;;2.28;1.30;;;15.40;70.30;;;;;;5033125;28;20422;-71
2022/11/07 04:45:07;;;;;;;2.92;1.30;;;15.40;70.20;;;;;;5059922;28;20049;-72
2022/11/07 04:47:34;;;;;;;2.17;1.42;;;15.40;70.20;;;;;;5012496;28;20057;-72
2022/11/07 04:50:00;;;;;;;3.47;1.73;;;15.40;70.30;;;;;;5012048;28;20056;-72
2022/11/07 04:52:27;;;;;;;1.98;1.27;;;15.40;70.30;;;;;;5012233;28;20542;-71
2022/11/07 04:54:55;;;;;;;2.15;1.38;;;15.40;70.30;;;;;;5012235;28;20140;-72
2022/11/07 04:57:22;;;;;;;1.48;1.23;;;15.40;70.30;;;;;;5012395;28;20054;-72
2022/11/07 04:59:48;;;;;;;2.42;1.40;;;15.40;70.30;;;;;;5021327;28;20053;-72
2022/11/07 05:02:15;;;;;;;1.30;1.20;;;15.40;70.30;;;;;;5031668;28;20063;-72
2022/11/07 05:04:42;;;;;;;2.65;1.50;;;15.40;70.30;;;;;;5033268;28;20076;-72
2022/11/07 05:07:08;;;;;;;1.80;1.25;;;15.40;70.30;;;;;;5031891;28;20057;-72
2022/11/07 05:09:35;;;;;;;3.17;1.48;;;15.40;70.30;;;;;;5031850;28;20056;-72
2022/11/07 05:12:04;;;;;;;1.45;1.10;;;15.40;70.30;;;;;;5031411;28;20061;-72
2022/11/07 05:14:31;;;;;;;2.20;1.20;;;15.40;70.30;;;;;;5031440;28;20536;-72
2022/11/07 05:16:58;;;;;;;1.50;1.15;;;15.40;70.30;;;;;;5031720;28;20068;-72
2022/11/07 05:19:24;;;;;;;2.33;1.40;;;15.40;70.30;;;;;;5031355;28;20057;-72
2022/11/07 05:23:10;;;;;;;2.85;1.33;;;15.40;70.30;;;;;;5031248;28;20059;-72
2022/11/07 05:24:37;;;;;;;3.10;1.30;;;15.40;70.30;;;;;;5031504;28;20414;-72
2022/11/07 05:27:06;;;;;;;1.85;1.20;;;15.30;70.30;;;;;;5031500;28;20057;-72
2022/11/07 05:29:33;;;;;;;1.88;1.20;;;15.40;70.30;;;;;;5032338;28;20053;-72
2022/11/07 05:31:59;;;;;;;1.20;1.10;;;15.40;70.30;;;;;;5031267;28;20057;-72
2022/11/07 05:34:26;;;;;;;1.75;1.20;;;15.30;70.30;;;;;;5031417;28;20500;-72
2022/11/07 05:36:53;;;;;;;2.22;1.30;;;15.30;70.30;;;;;;5031133;28;20065;-72
2022/11/07 05:39:20;;;;;;;1.88;1.10;;;15.40;70.40;;;;;;5032328;28;20063;-72
2022/11/07 05:41:46;;;;;;;3.05;1.20;;;15.30;70.30;;;;;;5032264;28;20059;-72
2022/11/07 05:44:14;;;;;;;3.40;1.30;;;15.30;70.30;;;;;;5030917;28;20061;-72
2022/11/07 05:46:41;;;;;;;1.83;1.10;;;15.30;70.40;;;;;;5030918;28;20053;-72
2022/11/07 05:49:11;;;;;;;1.50;1.17;;;15.30;70.30;;;;;;5032232;28;20505;-72
2022/11/07 05:51:37;;;;;;;1.58;1.13;;;15.30;70.30;;;;;;5031973;28;20056;-72
2022/11/07 05:54:04;;;;;;;1.65;1.23;;;15.30;70.30;;;;;;5030986;28;20059;-72
2022/11/07 05:56:31;;;;;;;1.30;1.20;;;15.30;70.30;;;;;;5030756;28;20055;-72
2022/11/07 05:58:58;;;;;;;1.58;1.20;;;15.30;70.30;;;;;;5032197;28;20053;-72
2022/11/07 06:01:26;;;;;;;1.63;1.20;;;15.30;70.30;;;;;;5030460;28;20059;-71
2022/11/07 06:03:52;;;;;;;1.85;1.20;;;15.30;70.30;;;;;;5030647;28;20483;-71
2022/11/07 06:06:19;;;;;;;2.42;1.10;;;15.30;70.30;;;;;;5030725;28;20067;-71
2022/11/07 06:08:46;;;;;;;1.58;1.10;;;15.30;70.30;;;;;;5031930;28;20057;-71
2022/11/07 06:11:12;;;;;;;1.65;1.30;;;15.30;70.30;;;;;;5030559;28;20045;-71
2022/11/07 06:13:39;;;;;;;1.52;1.10;;;15.30;70.30;;;;;;5030690;28;20083;-71
2022/11/07 06:16:07;;;;;;;1.73;1.20;;;15.30;70.30;;;;;;5030918;28;20136;-71
2022/11/07 06:18:36;;;;;;;2.53;1.20;;;15.30;70.30;;;;;;5030607;28;20057;-71
2022/11/07 06:21:02;;;;;;;1.70;1.30;;;15.30;70.30;;;;;;5030317;28;20107;-71
2022/11/07 06:23:30;;;;;;;1.42;1.10;;;15.30;70.30;;;;;;5030723;28;20061;-71
2022/11/07 06:25:56;;;;;;;3.00;1.30;;;15.30;70.30;;;;;;5030644;28;20138;-71
2022/11/07 06:28:23;;;;;;;3.10;1.50;;;15.30;70.30;;;;;;5030705;28;20053;-71
2022/11/07 06:30:50;;;;;;;1.98;1.35;;;15.30;70.30;;;;;;5030505;28;20554;-71
2022/11/07 06:33:17;;;;;;;2.53;1.40;;;15.30;70.30;;;;;;5030356;28;20063;-71
2022/11/07 06:35:45;;;;;;;2.97;1.30;;;15.30;70.30;;;;;;5030909;28;20068;-71
2022/11/07 06:38:13;;;;;;;2.22;1.40;;;15.30;70.30;;;;;;5030509;28;20053;-72
2022/11/07 06:40:41;;;;;;;1.45;1.10;;;15.30;70.30;;;;;;5030084;28;20402;-72
2022/11/07 06:43:09;;;;;;;3.33;1.30;;;15.30;70.80;;;;;;5030124;28;20056;-72
2022/11/07 06:45:39;;;;;;;2.30;1.13;;;15.30;70.30;;;;;;5031568;28;20473;-72
2022/11/07 06:48:06;;;;;;;1.70;1.30;;;15.30;70.30;;;;;;5033037;28;20071;-73
2022/11/07 06:50:33;;;;;;;2.85;1.27;;;15.30;70.30;;;;;;5034163;28;20053;-73
2022/11/07 06:53:05;;;;;;;1.40;1.20;;;15.30;70.30;;;;;;5034177;28;20057;-73
2022/11/07 06:55:33;;;;;;;1.23;1.10;;;15.30;70.30;;;;;;5035020;28;20047;-72
2022/11/07 06:58:00;;;;;;;2.33;1.20;;;15.30;70.30;;;;;;5034190;28;20049;-72
2022/11/07 07:00:27;;;;;;;3.15;1.40;;;15.30;70.30;;;;;;5034682;28;20056;-72
2022/11/07 07:02:54;;;;;;;3.50;1.30;;;15.30;71.30;;;;;;5066883;28;20326;-72
2022/11/07 07:05:20;;;;;;;2.70;1.50;;;15.30;70.30;;;;;;5034804;28;20049;-73
2022/11/07 07:07:47;;;;;;;2.22;1.20;;;15.30;70.30;;;;;;5066797;28;20132;-73
2022/11/07 07:10:15;;;;;;;1.83;1.20;;;15.30;70.30;;;;;;5034443;28;20504;-73
2022/11/07 07:12:43;;;;;;;2.00;1.20;;;15.30;70.30;;;;;;5034909;28;20055;-73
2022/11/07 07:15:10;;;;;;;3.45;1.30;;;15.30;70.30;;;;;;5033886;28;20081;-73
2022/11/07 07:17:36;;;;;;;1.77;1.25;;;15.30;70.30;;;;;;5033547;28;20050;-73
2022/11/07 07:20:04;;;;;;;2.38;1.40;;;15.30;70.30;;;;;;5033575;28;20053;-72
2022/11/07 07:22:31;;;;;;;1.95;1.27;;;15.30;70.30;;;;;;5033285;28;20053;-72
2022/11/07 07:24:57;;;;;;;2.45;1.23;;;15.30;70.20;;;;;;5033251;28;20053;-72
2022/11/07 07:27:25;;;;;;;2.75;1.20;;;15.40;70.20;;;;;;5033621;28;20049;-72
2022/11/07 07:29:52;;;;;;;2.30;1.30;;;15.40;70.20;;;;;;5034315;28;20068;-72
2022/11/07 07:32:19;;;;;;;2.65;1.38;;;15.40;70.10;;;;;;5033546;28;20155;-72
2022/11/07 07:34:46;;;;;;;2.58;1.27;;;15.50;70.10;;;;;;5033287;28;20045;-72
2022/11/07 07:37:12;;;;;;;1.23;1.10;;;15.50;70.00;;;;;;5030104;28;20089;-72
2022/11/07 07:39:39;;;;;;;3.85;1.42;;;15.50;69.90;;;;;;5065733;28;20071;-72
2022/11/07 07:42:06;;;;;;;3.42;1.40;;;15.60;69.90;;;;;;5032848;28;20050;-72
2022/11/07 07:44:34;;;;;;;3.05;1.40;;;15.60;69.80;;;;;;5033282;28;20059;-72
2022/11/07 07:47:01;;;;;;;2.08;1.27;;;15.70;69.80;;;;;;5034559;28;20049;-72
2022/11/07 07:49:28;;;;;;;3.22;1.65;;;15.70;69.70;;;;;;5033471;28;20057;-72
2022/11/07 07:51:55;;;;;;;2.90;1.30;;;15.70;69.70;;;;;;5066381;28;20046;-72
2022/11/07 07:54:22;;;;;;;3.33;1.90;;;15.80;69.70;;;;;;5033698;28;20045;-72
2022/11/07 07:56:48;;;;;;;5.25;1.60;;;15.80;69.60;;;;;;5033001;28;20497;-72
2022/11/07 07:59:15;;;;;;;3.13;1.50;;;15.80;69.50;;;;;;5031829;28;20059;-72
2022/11/07 08:01:43;;;;;;;3.15;1.42;;;15.90;69.50;;;;;;5033549;28;20045;-72
2022/11/07 08:04:10;;;;;;;2.08;1.52;;;15.90;69.40;;;;;;5032969;28;20053;-73
2022/11/07 08:06:36;;;;;;;2.03;1.33;;;15.90;69.40;;;;;;5032986;28;20058;-72
2022/11/07 08:09:03;;;;;;;2.55;1.40;;;16.00;69.40;;;;;;5032455;28;20060;-72
2022/11/07 08:11:30;;;;;;;4.13;1.52;;;16.00;69.40;;;;;;5045558;28;20056;-72
2022/11/07 08:13:57;;;;;;;2.13;1.45;;;16.00;69.30;;;;;;5046250;28;20053;-72
2022/11/07 08:16:24;;;;;;;2.83;1.48;;;16.00;69.30;;;;;;5053121;28;20124;-72
2022/11/07 08:18:52;;;;;;;3.33;1.35;;;16.00;69.20;;;;;;5029399;28;20053;-72
2022/11/07 08:21:19;;;;;;;2.13;1.50;;;16.10;69.20;;;;;;5013773;28;20410;-72
2022/11/07 08:23:48;;;;;;;3.05;1.40;;;16.10;69.20;;;;;;5030343;28;20123;-71
2022/11/07 08:26:14;;;;;;;1.95;1.30;;;16.10;69.10;;;;;;5033062;28;20057;-72
2022/11/07 08:28:41;;;;;;;2.40;1.50;;;16.10;69.00;;;;;;5032659;28;20071;-72
2022/11/07 08:31:09;;;;;;;2.38;1.50;;;16.10;69.00;;;;;;5031907;28;20053;-72
2022/11/07 08:33:36;;;;;;;3.35;1.50;;;16.20;69.10;;;;;;5031736;28;20049;-72
2022/11/07 08:36:05;;;;;;;3.65;1.50;;;16.20;69.00;;;;;;5033193;28;20091;-72
2022/11/07 08:38:32;;;;;;;3.50;1.35;;;16.20;69.00;;;;;;5031520;28;20132;-72
2022/11/07 08:40:59;;;;;;;2.15;1.30;;;16.20;68.90;;;;;;5031655;28;20487;-72
2022/11/07 08:43:26;;;;;;;2.78;1.35;;;16.30;68.90;;;;;;5032330;28;20064;-72
2022/11/07 08:45:53;;;;;;;3.47;1.55;;;16.30;68.90;;;;;;5032054;28;20064;-72
2022/11/07 08:48:20;;;;;;;3.17;1.30;;;16.30;68.80;;;;;;5031824;28;20049;-72
2022/11/07 08:50:46;;;;;;;1.92;1.30;;;16.30;68.80;;;;;;5031536;28;20071;-72
2022/11/07 08:53:15;;;;;;;2.40;1.40;;;16.30;68.70;;;;;;5031643;28;20059;-72
2022/11/07 08:55:41;;;;;;;2.78;1.30;;;16.40;68.70;;;;;;5032067;28;20091;-72
2022/11/07 08:58:08;;;;;;;3.20;1.58;;;16.40;68.70;;;;;;5032036;28;20558;-72
2022/11/07 09:00:35;;;;;;;4.30;1.50;;;16.40;68.70;;;;;;5031336;28;20064;-73
2022/11/07 09:03:02;;;;;;;3.17;1.70;;;16.40;68.70;;;;;;5032894;28;20136;-73
2022/11/07 09:05:29;;;;;;;3.38;1.30;;;16.50;68.60;;;;;;5031467;28;20057;-73
2022/11/07 09:07:56;;;;;;;2.42;1.42;;;16.50;68.60;;;;;;5032820;28;20497;-72
2022/11/07 09:10:24;;;;;;;2.25;1.27;;;16.50;68.60;;;;;;5050971;28;20053;-73
2022/11/07 09:12:50;;;;;;;4.00;1.30;;;16.50;68.50;;;;;;5044767;28;20136;-73
2022/11/07 09:15:17;;;;;;;2.65;1.40;;;16.50;68.50;;;;;;5031702;28;20136;-73
2022/11/07 09:17:45;;;;;;;3.00;1.27;;;16.60;68.50;;;;;;5031641;28;20057;-73
2022/11/07 09:20:13;;;;;;;2.60;1.30;;;16.60;68.50;;;;;;5031005;28;20053;-72
2022/11/07 09:22:40;;;;;;;2.10;1.30;;;16.60;68.40;;;;;;5031327;28;20052;-72
2022/11/07 09:25:08;;;;;;;2.22;1.25;;;16.60;68.40;;;;;;5037855;28;20494;-73
2022/11/07 09:27:36;;;;;;;1.65;1.25;;;16.60;68.40;;;;;;5031551;28;20514;-73
2022/11/07 09:30:04;;;;;;;2.03;1.20;;;16.60;68.40;;;;;;5031088;28;20057;-73
2022/11/07 09:32:31;;;;;;;2.22;1.10;;;16.60;68.40;;;;;;5031313;28;20060;-73
2022/11/07 09:34:57;;;;;;;2.47;1.20;;;16.60;68.40;;;;;;5030962;28;20056;-73
2022/11/07 09:37:24;;;;;;;2.55;1.30;;;16.60;68.50;;;;;;5031421;28;20049;-73
2022/11/07 09:39:51;;;;;;;5.18;1.45;;;16.70;68.60;;;;;;5030874;28;20128;-72
2022/11/07 09:42:22;;;;;;;2.97;1.30;;;16.60;68.60;;;;;;5030904;28;20483;-74
2022/11/07 09:44:54;;;;;;;2.25;1.50;;;16.70;68.80;;;;;;5030589;28;20063;-73
2022/11/07 09:47:23;;;;;;;4.13;1.90;;;16.70;68.70;;;;;;5064466;28;20069;-73
2022/11/07 09:49:51;;;;;;;2.25;1.80;;;16.60;68.80;;;;;;5030870;28;20132;-73
2022/11/07 09:52:21;;;;;;;3.72;1.45;;;16.60;69.00;;;;;;5032170;28;20060;-73
2022/11/07 09:54:50;;;;;;;2.25;1.40;;;16.60;69.10;;;;;;5063472;28;20053;-73
2022/11/07 09:57:18;;;;;;;3.63;1.48;;;16.60;69.20;;;;;;5032150;28;20064;-73
2022/11/07 09:59:46;;;;;;;5.68;1.52;;;16.60;69.30;;;;;;5030832;28;20515;-73
2022/11/07 10:02:16;;;;;;;3.25;1.50;;;16.60;69.30;;;;;;5031835;28;20071;-73
2022/11/07 10:04:43;;;;;;;3.17;1.30;;;16.60;69.30;;;;;;5032060;28;20228;-72
2022/11/07 10:07:14;;;;;;;2.47;1.40;;;16.50;69.20;;;;;;5031015;28;20049;-72
2022/11/07 10:09:43;;;;;;;4.13;1.25;;;16.50;69.20;;;;;;5031459;28;20421;-72
2022/11/07 10:12:16;;;;;;;3.63;1.25;;;16.50;69.30;;;;;;5030674;28;20053;-72
2022/11/07 10:14:46;;;;;;;5.50;1.50;;;16.50;69.30;;;;;;5030775;28;20567;-72
2022/11/07 10:17:17;;;;;;;3.05;1.55;;;16.50;69.30;;;;;;5030887;28;20057;-72
2022/11/07 10:20:03;;;;;;;3.53;1.40;;;16.50;69.40;;;;;;5031851;28;20455;-73
2022/11/07 10:22:46;;;;;;;2.78;1.50;;;16.50;69.30;;;;;;5033207;28;20053;-73
2022/11/07 10:25:25;;;;;;;2.60;1.38;;;16.50;69.30;;;;;;5034898;28;20053;-73
2022/11/07 10:27:54;;;;;;;4.88;1.15;;;16.50;69.30;;;;;;5035690;28;20137;-72
2022/11/07 10:30:21;;;;;;;2.00;1.25;;;16.50;69.40;;;;;;5034645;28;20136;-73
2022/11/07 10:32:53;;;;;;;2.95;1.50;;;16.50;69.40;;;;;;5034544;28;20057;-73
2022/11/07 10:35:25;;;;;;;1.92;1.30;;;16.50;69.40;;;;;;5034741;28;20064;-73
2022/11/07 10:37:54;;;;;;;2.83;1.45;;;16.50;69.40;;;;;;5034450;28;20140;-73
2022/11/07 10:40:21;;;;;;;5.53;1.50;;;16.40;69.40;;;;;;5034364;28;20511;-73
2022/11/07 10:42:48;;;;;;;2.65;1.40;;;16.40;69.40;;;;;;5034096;28;20124;-73
2022/11/07 10:45:15;;;;;;;2.83;1.52;;;16.40;69.30;;;;;;5034578;28;20113;-72
2022/11/07 10:47:42;;;;;;;2.40;1.20;;;16.40;69.30;;;;;;5035421;28;20045;-72
2022/11/07 10:50:18;;;;;;;2.30;1.33;;;16.40;69.30;;;;;;5043050;28;20045;-72
2022/11/07 10:52:52;;;;;;;2.50;1.50;;;16.40;69.30;;;;;;5042964;28;20505;-72
2022/11/07 10:55:19;;;;;;;4.38;1.40;;;16.40;69.30;;;;;;5042310;28;20494;-72
2022/11/07 10:57:47;;;;;;;2.60;1.30;;;16.40;69.30;;;;;;5042810;28;20059;-72
2022/11/07 11:00:22;;;;;;;2.78;1.23;;;15.20;68.70;;;;;;5038218;28;20080;-72
2022/11/07 11:02:48;;;;;;;;;;;16.40;69.30;;;;;;5042832;28;20129;-72
2022/11/07 11:05:25;;;;;;;2.97;1.58;;;16.40;69.30;;;;;;5042477;28;19928;-72
2022/11/07 11:07:53;;;;;;;2.13;1.30;;;16.30;69.40;;;;;;5040140;28;20071;-72
2022/11/07 11:10:21;;;;;;;2.38;1.30;;;16.30;69.40;;;;;;5043087;28;20128;-72
2022/11/07 11:12:48;;;;;;;2.33;1.40;;;17.60;70.00;;;;;;5042637;28;20049;-72
2022/11/07 11:15:15;;;;;;;2.47;1.20;;;16.40;69.40;;;;;;5044279;28;20049;-72
2022/11/07 11:17:42;;;;;;;3.22;1.50;;;16.40;69.40;;;;;;5042879;28;20045;-72
2022/11/07 11:20:28;;;;;;;3.17;1.35;;;16.40;69.40;;;;;;5043859;28;20055;-72
2022/11/07 11:22:54;;;;;;;2.30;1.33;;;16.40;69.30;;;;;;5043703;28;20053;-72
2022/11/07 11:25:22;;;;;;;2.78;1.60;;;16.30;69.40;;;;;;5043963;28;20045;-72
2022/11/07 11:27:52;;;;;;;2.85;1.35;;;16.30;69.30;;;;;;5044158;28;20060;-72
2022/11/07 11:30:20;;;;;;;2.45;1.40;;;16.30;69.40;;;;;;5043042;28;20088;-72
2022/11/07 11:32:50;;;;;;;2.00;1.20;;;16.40;69.40;;;;;;5041929;28;20495;-72
2022/11/07 11:35:24;;;;;;;2.58;1.30;;;16.40;69.40;;;;;;5044112;28;20051;-72
2022/11/07 11:37:53;;;;;;;2.95;1.40;;;16.30;69.40;;;;;;5044042;28;20048;-72
2022/11/07 11:40:22;;;;;;;2.95;1.40;;;16.30;69.40;;;;;;5042898;28;20064;-72
2022/11/07 11:42:51;;;;;;;3.35;1.30;;;16.30;69.40;;;;;;5039797;28;20045;-72
2022/11/07 11:45:19;;;;;;;2.72;1.40;;;16.30;69.40;;;;;;5022571;28;20077;-73
2022/11/07 11:47:50;;;;;;;1.92;1.20;;;16.30;69.40;;;;;;5022070;28;20053;-73
2022/11/07 11:50:18;;;;;;;2.45;1.30;;;16.30;69.40;;;;;;5028935;28;20053;-73
2022/11/07 11:52:44;;;;;;;2.50;1.38;;;16.30;69.40;;;;;;5031695;28;20049;-74
2022/11/07 11:55:14;;;;;;;2.08;1.27;;;16.30;69.40;;;;;;5032692;28;20087;-73
2022/11/07 11:57:46;;;;;;;2.15;1.30;;;16.30;69.40;;;;;;5032915;28;20049;-74
2022/11/07 12:00:14;;;;;;;2.97;1.45;;;16.30;69.40;;;;;;5032741;28;20136;-73
2022/11/07 12:03:04;;;;;;;1.77;1.10;;;16.30;69.40;;;;;;5035776;28;20048;-74
2022/11/07 12:06:11;;;;;;;3.47;1.20;;;16.30;69.30;;;;;;5034241;28;20463;-73
2022/11/07 12:08:54;;;;;;;2.08;1.30;;;16.30;69.20;;;;;;4995989;28;20053;-73
2022/11/07 12:11:24;;;;;;;5.00;1.63;;;16.30;69.30;;;;;;4995559;28;20054;-74
2022/11/07 12:13:55;;;;;;;1.90;1.27;;;16.40;69.30;;;;;;5009645;28;20049;-73
2022/11/07 12:16:25;;;;;;;3.05;1.50;;;16.40;69.30;;;;;;5023439;28;20462;-74
2022/11/07 12:18:55;;;;;;;1.77;1.13;;;16.40;69.30;;;;;;5019737;28;20057;-74
2022/11/07 12:21:26;;;;;;;1.98;1.40;;;16.40;69.30;;;;;;5012724;28;20064;-74
2022/11/07 12:24:10;;;;;;;2.00;1.23;;;16.40;69.30;;;;;;5012747;28;20177;-73
2022/11/07 12:26:40;;;;;;;5.22;1.30;;;16.40;69.30;;;;;;5012647;28;20053;-73
2022/11/07 12:29:11;;;;;;;1.67;1.17;;;16.50;69.40;;;;;;5027352;28;20067;-73
2022/11/07 12:31:45;;;;;;;1.90;1.35;;;16.50;69.30;;;;;;5051964;28;20511;-73
2022/11/07 12:34:19;;;;;;;2.38;1.33;;;16.50;69.30;;;;;;5052517;28;20064;-73
2022/11/07 12:36:53;;;;;;;3.70;1.40;;;16.50;69.20;;;;;;5032867;28;20071;-73
2022/11/07 12:39:30;;;;;;;2.20;1.40;;;16.50;69.20;;;;;;5032198;28;20417;-72
2022/11/07 12:42:01;;;;;;;3.42;1.55;;;16.50;69.20;;;;;;5031521;28;20053;-72
2022/11/07 12:44:41;;;;;;;2.53;1.40;;;16.50;69.20;;;;;;5064986;28;20132;-72
2022/11/07 12:47:12;;;;;;;3.55;1.45;;;16.60;69.30;;;;;;5032056;28;20057;-72
2022/11/07 12:49:47;;;;;;;1.90;1.48;;;16.60;69.30;;;;;;5031905;28;20053;-71
2022/11/07 12:52:22;;;;;;;2.72;1.23;;;16.60;69.30;;;;;;5032010;28;20053;-73
2022/11/07 12:54:50;;;;;;;2.58;1.50;;;16.60;69.30;;;;;;5032052;28;20140;-73
2022/11/07 12:57:22;;;;;;;3.58;1.45;;;16.60;69.30;;;;;;5033279;28;20132;-73
2022/11/07 12:59:52;;;;;;;2.92;1.40;;;16.60;69.30;;;;;;5032129;28;20418;-73
2022/11/07 13:02:31;;;;;;;2.45;1.30;;;16.60;69.30;;;;;;5032699;28;20071;-73